createdAt,value
2018-11-21T00:02:06.422Z,43.97
2018-11-21T00:04:33.917Z,42.87
2018-11-21T00:07:01.353Z,45.33
2018-11-21T00:09:28.796Z,43.70
2018-11-21T00:11:56.233Z,43.17
2018-11-21T00:14:23.636Z,45.27
2018-11-21T00:16:51.050Z,43.23
2018-11-21T00:19:18.485Z,43.97
2018-11-21T00:21:45.957Z,42.03
2018-11-21T00:24:13.376Z,46.20
2018-11-21T00:26:40.800Z,44.27
2018-11-21T00:29:08.218Z,43.07
2018-11-21T00:31:35.675Z,44.10
2018-11-21T00:34:03.079Z,42.87
2018-11-21T00:36:30.482Z,43.87
2018-11-21T00:38:57.925Z,45.27
2018-11-21T00:41:25.343Z,44.80
2018-11-21T00:43:52.781Z,45.63
2018-11-21T00:46:20.182Z,43.40
2018-11-21T00:48:47.621Z,45.17
2018-11-21T00:51:15.020Z,45.20
2018-11-21T00:53:42.443Z,45.97
2018-11-21T00:56:09.858Z,51.07
2018-11-21T00:58:37.272Z,46.03
2018-11-21T01:01:04.710Z,47.07
2018-11-21T01:03:32.130Z,48.97
2018-11-21T01:05:59.546Z,48.07
2018-11-21T01:08:27.036Z,46.90
2018-11-21T01:10:54.475Z,50.23
2018-11-21T01:13:21.905Z,51.67
2018-11-21T01:15:49.321Z,46.13
2018-11-21T01:18:16.763Z,51.80
2018-11-21T01:20:44.219Z,49.37
2018-11-21T01:23:11.635Z,44.00
2018-11-21T01:25:39.045Z,48.67
2018-11-21T01:28:06.503Z,45.37
2018-11-21T01:30:33.912Z,46.77
2018-11-21T01:33:01.348Z,50.20
2018-11-21T01:35:28.766Z,48.13
2018-11-21T01:37:56.204Z,45.43
2018-11-21T01:40:23.606Z,47.40
2018-11-21T01:42:51.034Z,50.23
2018-11-21T01:45:18.454Z,48.23
2018-11-21T01:47:45.872Z,47.73
2018-11-21T01:50:13.321Z,47.33
2018-11-21T01:52:40.764Z,46.20
2018-11-21T01:55:08.213Z,50.27
2018-11-21T01:57:35.621Z,77.67
2018-11-21T02:00:03.048Z,117.33
2018-11-21T02:02:30.487Z,115.13
2018-11-21T02:04:57.900Z,153.13
2018-11-21T02:07:25.343Z,135.17
2018-11-21T02:09:52.750Z,163.93
2018-11-21T02:12:20.202Z,160.60
2018-11-21T02:14:47.624Z,179.67
2018-11-21T02:17:15.058Z,159.40
2018-11-21T02:19:42.466Z,159.77
2018-11-21T02:22:09.905Z,154.77
2018-11-21T02:24:37.329Z,162.03
2018-11-21T02:27:04.757Z,146.00
2018-11-21T02:29:32.195Z,166.17
2018-11-21T02:31:59.605Z,154.73
2018-11-21T02:34:27.050Z,125.40
2018-11-21T02:36:54.479Z,126.00
2018-11-21T02:39:21.919Z,125.07
2018-11-21T02:41:49.327Z,103.13
2018-11-21T02:44:16.773Z,78.93
2018-11-21T02:46:44.174Z,67.97
2018-11-21T02:49:11.617Z,75.63
2018-11-21T02:51:39.020Z,75.57
2018-11-21T02:54:06.454Z,72.03
2018-11-21T02:56:33.900Z,58.20
2018-11-21T02:59:01.307Z,59.33
2018-11-21T03:01:28.745Z,52.73
2018-11-21T03:03:56.159Z,56.97
2018-11-21T03:06:23.612Z,50.43
2018-11-21T03:08:51.028Z,56.17
2018-11-21T03:11:18.464Z,54.60
2018-11-21T03:13:45.910Z,45.77
2018-11-21T03:16:13.358Z,47.00
2018-11-21T03:18:40.798Z,57.70
2018-11-21T03:21:08.242Z,61.20
2018-11-21T03:23:35.671Z,56.93
2018-11-21T03:26:03.101Z,57.67
2018-11-21T03:28:30.539Z,56.93
2018-11-21T03:30:57.967Z,49.70
2018-11-21T03:33:25.361Z,48.20
2018-11-21T03:35:52.759Z,48.20
2018-11-21T03:38:20.199Z,49.30
2018-11-21T03:40:47.665Z,50.13
2018-11-21T03:43:15.042Z,49.17
2018-11-21T03:45:42.471Z,51.20
2018-11-21T03:48:09.895Z,45.87
2018-11-21T03:50:37.320Z,51.43
2018-11-21T03:53:04.762Z,49.40
2018-11-21T03:55:32.184Z,50.37
2018-11-21T03:57:59.605Z,49.73
2018-11-21T04:00:27.047Z,49.37
2018-11-21T04:02:54.503Z,55.20
2018-11-21T04:05:21.913Z,52.13
2018-11-21T04:07:49.347Z,52.60
2018-11-21T04:10:16.757Z,56.70
2018-11-21T04:12:44.202Z,55.90
2018-11-21T04:15:11.608Z,56.47
2018-11-21T04:17:39.038Z,54.30
2018-11-21T04:20:06.486Z,53.27
2018-11-21T04:22:33.934Z,52.17
2018-11-21T04:25:01.337Z,51.77
2018-11-21T04:27:28.756Z,45.20
2018-11-21T04:29:56.180Z,47.27
2018-11-21T04:32:23.608Z,47.83
2018-11-21T04:34:51.054Z,47.60
2018-11-21T04:37:18.461Z,47.87
2018-11-21T04:39:45.881Z,47.80
2018-11-21T04:42:13.321Z,52.40
2018-11-21T04:44:40.749Z,46.13
2018-11-21T04:47:08.153Z,50.30
2018-11-21T04:49:35.691Z,41.73
2018-11-21T04:52:03.114Z,43.37
2018-11-21T04:54:30.533Z,50.93
2018-11-21T04:56:57.980Z,45.53
2018-11-21T04:59:25.404Z,47.77
2018-11-21T05:01:52.834Z,47.10
2018-11-21T05:04:20.231Z,46.60
2018-11-21T05:06:47.679Z,46.17
2018-11-21T05:09:15.084Z,48.07
2018-11-21T05:11:42.494Z,46.00
2018-11-21T05:14:09.936Z,46.27
2018-11-21T05:16:37.385Z,51.03
2018-11-21T05:19:04.781Z,49.60
2018-11-21T05:21:32.220Z,49.10
2018-11-21T05:23:59.654Z,50.27
2018-11-21T05:26:27.091Z,50.93
2018-11-21T05:28:54.510Z,55.43
2018-11-21T05:31:21.924Z,55.13
2018-11-21T05:33:49.364Z,57.53
2018-11-21T05:36:16.798Z,52.03
2018-11-21T05:38:44.216Z,50.43
2018-11-21T05:41:11.649Z,47.50
2018-11-21T05:43:39.078Z,54.83
2018-11-21T05:46:06.495Z,54.03
2018-11-21T05:48:33.945Z,48.93
2018-11-21T05:51:01.363Z,48.17
2018-11-21T05:53:28.763Z,52.23
2018-11-21T05:55:56.230Z,56.50
2018-11-21T05:58:23.646Z,53.53
2018-11-21T06:00:51.091Z,51.73
2018-11-21T06:03:18.510Z,52.27
2018-11-21T06:05:45.939Z,49.23
2018-11-21T06:08:13.365Z,45.97
2018-11-21T06:10:40.828Z,49.20
2018-11-21T06:13:08.235Z,48.57
2018-11-21T06:15:35.673Z,43.63
2018-11-21T06:18:03.118Z,49.80
2018-11-21T06:20:30.590Z,47.13
2018-11-21T06:22:58.036Z,50.23
2018-11-21T06:25:25.456Z,42.10
2018-11-21T06:27:52.897Z,47.67
2018-11-21T06:30:20.323Z,50.53
2018-11-21T06:32:47.764Z,47.53
2018-11-21T06:35:15.176Z,50.00
2018-11-21T06:37:42.578Z,53.53
2018-11-21T06:40:10.016Z,55.90
2018-11-21T06:42:37.467Z,58.57
2018-11-21T06:45:04.860Z,51.57
2018-11-21T06:47:32.287Z,48.80
2018-11-21T06:49:59.719Z,51.63
2018-11-21T06:52:27.161Z,46.63
2018-11-21T06:54:54.597Z,50.23
2018-11-21T06:57:22.008Z,52.07
2018-11-21T06:59:49.490Z,52.03
2018-11-21T07:02:16.915Z,47.87
2018-11-21T07:04:44.395Z,52.47
2018-11-21T07:07:11.780Z,43.97
2018-11-21T07:09:39.242Z,48.73
2018-11-21T07:12:06.640Z,47.60
2018-11-21T07:14:34.106Z,42.57
2018-11-21T07:17:01.551Z,40.27
2018-11-21T07:19:28.975Z,41.43
2018-11-21T07:21:56.410Z,44.47
2018-11-21T07:24:26.383Z,47.43
2018-11-21T07:26:51.277Z,42.57
2018-11-21T07:29:18.703Z,47.27
2018-11-21T07:31:46.163Z,47.23
2018-11-21T07:34:13.597Z,46.73
2018-11-21T07:36:41.058Z,46.57
2018-11-21T07:39:08.483Z,51.83
2018-11-21T07:41:35.914Z,50.00
2018-11-21T07:44:03.338Z,46.83
2018-11-21T07:46:30.783Z,48.37
2018-11-21T07:48:58.206Z,49.13
2018-11-21T07:51:25.645Z,49.07
2018-11-21T07:53:53.078Z,50.80
2018-11-21T07:56:29.275Z,48.87
2018-11-21T07:58:56.705Z,55.00
2018-11-21T08:01:24.117Z,77.23
2018-11-21T08:03:51.544Z,55.37
2018-11-21T08:06:18.977Z,45.57
2018-11-21T08:08:46.494Z,45.40
2018-11-21T08:11:13.901Z,46.43
2018-11-21T08:13:41.358Z,44.53
2018-11-21T08:16:08.782Z,42.27
2018-11-21T08:18:36.289Z,44.50
2018-11-21T08:21:03.694Z,47.20
2018-11-21T08:23:31.152Z,46.80
2018-11-21T08:25:58.524Z,42.33
2018-11-21T08:28:25.965Z,41.17
2018-11-21T08:30:53.399Z,43.07
2018-11-21T08:33:20.822Z,40.07
2018-11-21T08:35:48.250Z,45.43
2018-11-21T08:38:15.654Z,41.70
2018-11-21T08:40:43.088Z,40.97
2018-11-21T08:43:10.504Z,48.73
2018-11-21T08:45:59.198Z,45.53
2018-11-21T08:48:26.606Z,43.73
2018-11-21T08:50:54.046Z,43.93
2018-11-21T08:53:21.482Z,44.33
2018-11-21T08:55:48.933Z,41.10
2018-11-21T08:58:16.337Z,45.00
2018-11-21T09:00:43.748Z,44.57
2018-11-21T09:03:11.176Z,48.97
2018-11-21T09:05:38.599Z,45.53
2018-11-21T09:08:06.062Z,43.43
2018-11-21T09:13:00.060Z,51.23
2018-11-21T09:15:27.516Z,52.03
2018-11-21T09:17:54.917Z,47.77
2018-11-21T09:20:22.324Z,47.83
2018-11-21T09:22:49.757Z,45.17
2018-11-21T09:25:17.182Z,45.80
2018-11-21T09:27:44.626Z,39.40
2018-11-21T09:30:12.049Z,45.23
2018-11-21T09:32:39.466Z,45.37
2018-11-21T09:35:06.897Z,43.17
2018-11-21T09:37:34.307Z,41.67
2018-11-21T09:40:01.735Z,46.20
2018-11-21T09:42:29.216Z,45.37
2018-11-21T09:44:56.624Z,46.67
2018-11-21T09:47:24.236Z,42.63
2018-11-21T09:49:51.462Z,48.77
2018-11-21T09:52:18.887Z,45.07
2018-11-21T09:54:46.331Z,47.40
2018-11-21T09:57:13.759Z,43.90
2018-11-21T09:59:41.188Z,42.70
2018-11-21T10:02:14.295Z,47.60
2018-11-21T10:04:41.737Z,46.23
2018-11-21T10:07:09.155Z,46.50
2018-11-21T10:09:36.572Z,49.30
2018-11-21T10:12:04.018Z,48.37
2018-11-21T10:14:31.423Z,51.83
2018-11-21T10:19:34.614Z,45.38
2018-11-21T10:22:03.249Z,44.63
2018-11-21T10:24:30.673Z,48.03
2018-11-21T10:26:58.108Z,44.00
2018-11-21T10:29:25.596Z,45.47
2018-11-21T10:31:53.073Z,47.37
2018-11-21T10:34:20.473Z,45.30
2018-11-21T10:36:47.877Z,44.40
2018-11-21T10:39:15.337Z,47.37
2018-11-21T10:41:42.735Z,46.00
2018-11-21T10:44:10.187Z,47.17
2018-11-21T10:46:37.599Z,46.87
2018-11-21T10:49:05.015Z,45.53
2018-11-21T10:51:32.449Z,47.63
2018-11-21T10:53:59.863Z,45.87
2018-11-21T10:56:27.271Z,43.50
2018-11-21T10:58:54.708Z,47.00
2018-11-21T11:01:22.146Z,45.93
2018-11-21T11:03:49.582Z,50.13
2018-11-21T11:06:17.075Z,44.53
2018-11-21T11:08:44.428Z,43.13
2018-11-21T11:11:11.852Z,45.50
2018-11-21T11:13:39.278Z,47.10
2018-11-21T11:16:07.776Z,44.33
2018-11-21T11:18:34.129Z,47.47
2018-11-21T11:21:01.531Z,46.53
2018-11-21T11:23:28.961Z,43.53
2018-11-21T11:25:56.380Z,44.13
2018-11-21T11:28:23.870Z,48.33
2018-11-21T11:30:51.333Z,47.97
2018-11-21T11:33:18.722Z,39.20
2018-11-21T11:35:46.164Z,39.60
2018-11-21T11:38:13.578Z,41.90
2018-11-21T11:40:41.018Z,42.03
2018-11-21T11:43:08.432Z,47.87
2018-11-21T11:45:35.868Z,43.33
2018-11-21T11:48:03.287Z,45.63
2018-11-21T11:50:30.685Z,42.63
2018-11-21T11:52:58.116Z,51.23
2018-11-21T11:55:25.553Z,42.67
2018-11-21T11:57:52.963Z,45.03
2018-11-21T12:00:20.411Z,42.00
2018-11-21T12:02:47.820Z,40.20
2018-11-21T12:05:15.224Z,41.33
2018-11-21T12:07:42.673Z,43.07
2018-11-21T12:10:10.091Z,40.10
2018-11-21T12:12:40.141Z,41.77
2018-11-21T12:15:05.005Z,42.20
2018-11-21T12:17:32.378Z,40.10
2018-11-21T12:19:59.815Z,39.57
2018-11-21T12:22:27.242Z,46.70
2018-11-21T12:24:54.661Z,40.03
2018-11-21T12:27:22.118Z,37.83
2018-11-21T12:29:49.536Z,40.20
2018-11-21T12:32:16.986Z,42.13
2018-11-21T12:34:44.718Z,42.37
2018-11-21T12:37:14.888Z,41.17
2018-11-21T12:39:42.329Z,41.70
2018-11-21T12:42:09.753Z,38.93
2018-11-21T12:44:37.215Z,40.63
2018-11-21T12:47:04.938Z,44.70
2018-11-21T12:49:32.368Z,39.40
2018-11-21T12:52:00.296Z,43.70
2018-11-21T12:54:29.397Z,39.53
2018-11-21T12:56:56.826Z,39.07
2018-11-21T12:59:24.261Z,42.10
2018-11-21T13:01:51.679Z,41.47
2018-11-21T13:04:19.135Z,40.07
2018-11-21T13:06:46.580Z,43.37
2018-11-21T13:09:14.037Z,39.90
2018-11-21T13:11:41.483Z,38.67
2018-11-21T13:14:08.908Z,39.87
2018-11-21T13:16:36.335Z,38.87
2018-11-21T13:19:03.773Z,41.80
2018-11-21T13:21:31.218Z,36.90
2018-11-21T13:23:58.632Z,39.00
2018-11-21T13:26:26.044Z,38.73
2018-11-21T13:28:53.481Z,39.90
2018-11-21T13:31:20.898Z,38.97
2018-11-21T13:33:48.340Z,38.33
2018-11-21T13:36:15.751Z,41.10
2018-11-21T13:38:43.192Z,40.83
2018-11-21T13:41:10.609Z,38.87
2018-11-21T13:43:38.034Z,39.50
2018-11-21T13:46:05.458Z,41.07
2018-11-21T13:48:32.874Z,41.93
2018-11-21T13:51:00.319Z,38.43
2018-11-21T13:53:27.753Z,38.47
2018-11-21T13:55:55.211Z,40.00
2018-11-21T13:58:22.637Z,43.27
2018-11-21T14:00:50.099Z,35.43
2018-11-21T14:03:17.499Z,37.17
2018-11-21T14:05:44.937Z,38.97
2018-11-21T14:08:12.341Z,37.80
2018-11-21T14:10:39.781Z,39.40
2018-11-21T14:13:07.221Z,40.20
2018-11-21T14:15:34.628Z,40.20
2018-11-21T14:18:02.043Z,39.67
2018-11-21T14:20:29.494Z,37.03
2018-11-21T14:22:56.931Z,39.17
2018-11-21T14:25:24.423Z,41.03
2018-11-21T14:27:51.840Z,41.93
2018-11-21T14:30:19.282Z,38.83
2018-11-21T14:32:46.742Z,46.53
2018-11-21T14:35:14.176Z,51.50
2018-11-21T14:37:41.584Z,54.50
2018-11-21T14:40:09.016Z,73.20
2018-11-21T14:42:36.412Z,67.03
2018-11-21T14:45:03.850Z,52.10
2018-11-21T14:47:31.282Z,54.17
2018-11-21T14:49:58.690Z,48.93
2018-11-21T14:52:26.123Z,50.13
2018-11-21T14:54:53.541Z,50.87
2018-11-21T14:57:20.969Z,47.63
2018-11-21T14:59:48.381Z,47.03
2018-11-21T15:02:15.817Z,50.37
2018-11-21T15:04:43.220Z,45.73
2018-11-21T15:07:10.644Z,46.43
2018-11-21T15:09:38.060Z,45.93
2018-11-21T15:12:05.505Z,43.83
2018-11-21T15:14:33.028Z,44.83
2018-11-21T15:17:00.473Z,57.87
2018-11-21T15:19:27.955Z,44.57
2018-11-21T15:21:55.329Z,42.53
2018-11-21T15:24:22.769Z,45.77
2018-11-21T15:26:50.195Z,50.33
2018-11-21T15:29:17.647Z,44.50
2018-11-21T15:31:45.051Z,50.77
2018-11-21T15:34:12.469Z,53.60
2018-11-21T15:36:39.898Z,50.27
2018-11-21T15:39:07.334Z,49.07
2018-11-21T15:41:34.756Z,46.97
2018-11-21T15:44:02.197Z,48.33
2018-11-21T15:46:29.609Z,48.60
2018-11-21T15:48:57.020Z,53.13
2018-11-21T15:51:24.487Z,51.70
2018-11-21T15:53:52.632Z,48.57
2018-11-21T15:56:20.310Z,52.90
2018-11-21T15:58:47.717Z,51.87
2018-11-21T16:01:15.159Z,52.30
2018-11-21T16:03:42.563Z,54.33
2018-11-21T16:06:09.994Z,54.80
2018-11-21T16:08:37.439Z,53.87
2018-11-21T16:11:04.844Z,52.47
2018-11-21T16:13:32.283Z,50.47
2018-11-21T16:16:01.028Z,50.57
2018-11-21T16:18:28.464Z,51.07
2018-11-21T16:20:55.874Z,52.37
2018-11-21T16:23:23.380Z,52.83
2018-11-21T16:25:50.802Z,55.57
2018-11-21T16:28:18.215Z,57.50
2018-11-21T16:30:45.645Z,52.70
2018-11-21T16:33:13.053Z,49.07
2018-11-21T16:35:40.472Z,50.37
2018-11-21T16:38:07.957Z,46.73
2018-11-21T16:40:35.391Z,52.27
2018-11-21T16:43:02.803Z,51.23
2018-11-21T16:45:30.236Z,49.87
2018-11-21T16:47:57.676Z,53.30
2018-11-21T16:50:25.071Z,50.87
2018-11-21T16:52:52.500Z,54.23
2018-11-21T16:55:19.933Z,54.47
2018-11-21T16:57:47.353Z,51.77
2018-11-21T17:00:14.815Z,53.17
2018-11-21T17:02:42.233Z,52.33
2018-11-21T17:05:09.640Z,56.43
2018-11-21T17:07:37.077Z,49.97
2018-11-21T17:10:04.486Z,48.23
2018-11-21T17:12:31.913Z,52.73
2018-11-21T17:14:59.360Z,49.37
2018-11-21T17:17:26.784Z,51.90
2018-11-21T17:19:54.190Z,53.50
2018-11-21T17:22:21.751Z,50.43
2018-11-21T17:25:09.713Z,49.17
2018-11-21T17:27:37.147Z,52.60
2018-11-21T17:30:04.579Z,55.27
2018-11-21T17:32:32.016Z,53.63
2018-11-21T17:34:59.427Z,62.50
2018-11-21T17:37:26.864Z,59.20
2018-11-21T17:39:54.283Z,58.37
2018-11-21T17:42:21.706Z,57.07
2018-11-21T17:44:49.167Z,66.17
2018-11-21T17:47:16.604Z,60.67
2018-11-21T17:52:11.467Z,66.50
2018-11-21T17:54:38.912Z,56.03
2018-11-21T17:57:06.341Z,59.97
2018-11-21T17:59:33.756Z,60.23
2018-11-21T18:02:01.193Z,53.40
2018-11-21T18:04:28.615Z,66.73
2018-11-21T18:06:56.039Z,56.37
2018-11-21T18:09:23.450Z,58.07
2018-11-21T18:11:50.935Z,56.37
2018-11-21T18:14:18.328Z,60.13
2018-11-21T18:16:45.739Z,55.73
2018-11-21T18:19:13.208Z,62.20
2018-11-21T18:21:40.640Z,61.90
2018-11-21T18:24:08.118Z,53.47
2018-11-21T18:26:35.538Z,52.67
2018-11-21T18:29:02.980Z,52.50
2018-11-21T18:31:30.384Z,55.73
2018-11-21T18:33:57.896Z,55.17
2018-11-21T18:36:25.315Z,56.23
2018-11-21T18:38:52.773Z,59.27
2018-11-21T18:41:20.185Z,59.73
2018-11-21T18:43:47.631Z,53.37
2018-11-21T18:46:15.070Z,54.47
2018-11-21T18:48:42.493Z,55.77
2018-11-21T18:51:09.931Z,53.73
2018-11-21T18:53:37.355Z,50.37
2018-11-21T18:56:04.823Z,52.60
2018-11-21T18:58:32.237Z,55.87
2018-11-21T19:00:59.672Z,52.07
2018-11-21T19:03:27.127Z,55.03
2018-11-21T19:05:55.227Z,55.47
2018-11-21T19:08:22.710Z,51.77
2018-11-21T19:10:50.126Z,53.73
2018-11-21T19:13:17.546Z,51.00
2018-11-21T19:15:45.114Z,54.80
2018-11-21T19:18:12.562Z,56.07
2018-11-21T19:20:39.972Z,51.40
2018-11-21T19:23:07.427Z,55.10
2018-11-21T19:25:34.869Z,57.03
2018-11-21T19:28:02.285Z,57.87
2018-11-21T19:30:29.713Z,58.83
2018-11-21T19:32:57.168Z,61.43
2018-11-21T19:35:24.584Z,56.40
2018-11-21T19:37:52.017Z,54.03
2018-11-21T19:40:19.475Z,53.97
2018-11-21T19:42:46.878Z,60.33
2018-11-21T19:45:14.309Z,54.27
2018-11-21T19:47:41.761Z,51.93
2018-11-21T19:50:09.162Z,52.70
2018-11-21T19:52:36.570Z,57.20
2018-11-21T19:55:04.003Z,52.90
2018-11-21T19:57:31.420Z,50.43
2018-11-21T19:59:58.874Z,55.67
2018-11-21T20:02:26.310Z,65.60
2018-11-21T20:04:53.755Z,69.40
2018-11-21T20:07:21.159Z,72.33
2018-11-21T20:09:48.600Z,64.33
2018-11-21T20:12:16.033Z,88.63
2018-11-21T20:14:43.488Z,100.27
2018-11-21T20:17:13.993Z,108.00
2018-11-21T20:19:44.417Z,101.07
2018-11-21T20:22:23.208Z,82.50
2018-11-21T20:24:49.355Z,60.10
2018-11-21T20:27:22.564Z,58.50
2018-11-21T20:29:54.653Z,56.00
2018-11-21T20:32:17.765Z,61.57
2018-11-21T20:34:45.176Z,54.60
2018-11-21T20:37:12.580Z,54.27
2018-11-21T20:39:46.557Z,57.80
2018-11-21T20:42:07.451Z,59.17
2018-11-21T20:44:34.956Z,57.80
2018-11-21T20:47:02.388Z,56.23
2018-11-21T20:49:29.794Z,53.97
2018-11-21T20:51:57.264Z,62.30
2018-11-21T20:54:24.672Z,62.00
2018-11-21T20:56:52.130Z,62.10
2018-11-21T20:59:20.027Z,55.80
2018-11-21T21:01:47.465Z,57.30
2018-11-21T21:04:15.258Z,53.17
2018-11-21T21:06:42.690Z,54.57
2018-11-21T21:09:10.129Z,58.23
2018-11-21T21:11:37.536Z,54.07
2018-11-21T21:14:04.988Z,56.33
2018-11-21T21:16:32.421Z,54.97
2018-11-21T21:18:59.824Z,54.97
2018-11-21T21:21:27.284Z,56.53
2018-11-21T21:23:54.697Z,52.27
2018-11-21T21:26:22.170Z,53.73
2018-11-21T21:28:49.611Z,50.97
2018-11-21T21:31:17.031Z,51.97
2018-11-21T21:33:44.487Z,54.10
2018-11-21T21:36:11.892Z,52.50
2018-11-21T21:38:39.349Z,54.17
2018-11-21T21:41:06.753Z,55.13
2018-11-21T21:43:34.203Z,51.43
2018-11-21T21:46:02.111Z,54.30
2018-11-21T21:48:29.017Z,55.83
2018-11-21T21:50:56.459Z,52.73
2018-11-21T21:53:23.932Z,51.40
2018-11-21T21:55:51.336Z,51.07
2018-11-21T21:58:18.744Z,59.40
2018-11-21T22:00:46.199Z,52.73
2018-11-21T22:03:13.617Z,57.17
2018-11-21T22:05:41.029Z,49.30
2018-11-21T22:08:08.480Z,53.57
2018-11-21T22:10:35.876Z,54.77
2018-11-21T22:13:03.305Z,52.00
2018-11-21T22:15:30.738Z,48.07
2018-11-21T22:17:58.183Z,48.53
2018-11-21T22:20:25.615Z,47.33
2018-11-21T22:22:53.083Z,51.17
2018-11-21T22:25:20.513Z,48.43
2018-11-21T22:27:47.937Z,52.93
2018-11-21T22:30:15.344Z,51.17
2018-11-21T22:32:42.796Z,47.87
2018-11-21T22:35:10.210Z,52.90
2018-11-21T22:37:38.039Z,52.87
2018-11-21T22:40:05.085Z,50.63
2018-11-21T22:42:32.494Z,54.47
2018-11-21T22:45:02.785Z,56.37
2018-11-21T22:47:30.225Z,49.17
2018-11-21T22:49:57.661Z,47.73
2018-11-21T22:52:25.081Z,48.80
2018-11-21T22:54:52.541Z,52.77
2018-11-21T22:57:19.959Z,57.30
2018-11-21T22:59:47.429Z,51.63
2018-11-21T23:02:14.834Z,53.17
2018-11-21T23:04:42.264Z,54.53
2018-11-21T23:07:09.670Z,51.63
2018-11-21T23:09:37.106Z,52.00
2018-11-21T23:12:04.529Z,47.90
2018-11-21T23:14:31.958Z,50.23
2018-11-21T23:16:59.404Z,51.83
2018-11-21T23:19:26.855Z,52.50
2018-11-21T23:21:54.269Z,49.77
2018-11-21T23:24:21.683Z,53.17
2018-11-21T23:26:49.120Z,51.33
2018-11-21T23:29:16.529Z,52.23
2018-11-21T23:31:43.973Z,50.50
2018-11-21T23:34:11.376Z,55.20
2018-11-21T23:36:38.810Z,52.47
2018-11-21T23:39:06.224Z,54.00
2018-11-21T23:41:33.660Z,52.33
2018-11-21T23:44:01.074Z,52.73
2018-11-21T23:46:28.490Z,51.33
2018-11-21T23:48:55.922Z,50.70
2018-11-21T23:51:23.334Z,54.83
2018-11-21T23:53:51.243Z,52.47
2018-11-21T23:56:18.674Z,50.53
2018-11-21T23:58:46.095Z,50.27
